Time;durP1;ratioP1;P1;durP2;ratioP2;P2;SDS_P1;SDS_P2;PMS_P1;PMS_P2;Temp;Humidity;BMP_temperature;BMP_pressure;BME280_temperature;BME280_humidity;BME280_pressure;Samples;Min_cycle;Max_cycle;Signal;HPM_P1;HPM_P2
2021/03/10 00:03:59;;;;;;;9.13;5.17;;;;;;;3.59;100.00;99211.48;3813261;76;396340;-82
2021/03/10 00:09:21;;;;;;;5.13;3.40;;;;;;;3.64;100.00;99217.20;3812647;76;396165;-82
2021/03/10 00:14:42;;;;;;;3.70;3.40;;;;;;;3.62;100.00;99220.86;3812719;76;396040;-81
2021/03/10 00:20:06;;;;;;;7.33;3.43;;;;;;;3.50;100.00;99213.57;3813365;76;394028;-82
2021/03/10 00:25:27;;;;;;;7.10;4.73;;;;;;;3.51;100.00;99223.87;3813753;76;391863;-83
2021/03/10 00:30:48;;;;;;;23.37;4.73;;;;;;;3.61;100.00;99223.36;3802455;76;400199;-82
2021/03/10 00:36:10;;;;;;;17.03;3.53;;;;;;;3.72;100.00;99229.28;3813224;76;396422;-82
2021/03/10 00:41:31;;;;;;;6.03;5.37;;;;;;;3.56;100.00;99229.84;3813509;76;388781;-83
2021/03/10 00:46:52;;;;;;;7.77;4.60;;;;;;;3.43;100.00;99234.34;3813986;76;391851;-83
2021/03/10 00:52:14;;;;;;;9.47;4.10;;;;;;;3.61;100.00;99238.31;3813130;76;396334;-82
2021/03/10 00:57:35;;;;;;;2.13;1.93;;;;;;;3.65;100.00;99239.98;3813179;76;396174;-82
2021/03/10 01:02:56;;;;;;;7.33;3.40;;;;;;;3.57;100.00;99234.70;3812912;76;396347;-82
2021/03/10 01:08:18;;;;;;;9.27;5.27;;;;;;;3.55;100.00;99226.90;3811849;76;396401;-81
2021/03/10 01:13:39;;;;;;;12.90;4.17;;;;;;;3.52;100.00;99225.45;3813178;76;396138;-81
2021/03/10 01:19:01;;;;;;;3.60;2.43;;;;;;;3.49;100.00;99229.66;3812947;76;396356;-82
2021/03/10 01:24:22;;;;;;;4.10;3.70;;;;;;;3.42;100.00;99231.39;3812661;76;396335;-82
2021/03/10 01:29:44;;;;;;;3.00;2.20;;;;;;;3.42;100.00;99232.76;3812662;76;396108;-81
2021/03/10 01:35:08;;;;;;;14.40;4.20;;;;;;;3.46;100.00;99235.02;3817386;75;396351;-82
2021/03/10 01:40:29;;;;;;;5.53;4.00;;;;;;;3.60;100.00;99231.30;3818279;76;396145;-81
2021/03/10 01:45:51;;;;;;;11.17;4.50;;;;;;;3.59;100.00;99226.98;3818618;76;396317;-81
2021/03/10 01:51:12;;;;;;;11.03;4.20;;;;;;;3.60;100.00;99238.09;3818559;76;396374;-81
2021/03/10 01:56:34;;;;;;;3.67;3.03;;;;;;;3.58;100.00;99241.17;3817860;76;396108;-81
2021/03/10 02:01:55;;;;;;;13.97;7.23;;;;;;;3.63;100.00;99225.94;3818254;76;400235;-80
2021/03/10 02:07:28;;;;;;;5.73;3.53;;;;;;;3.53;100.00;99220.23;3818272;76;390809;-80
2021/03/10 02:13:08;;;;;;;4.67;3.93;;;;;;;3.43;100.00;99218.03;3816918;76;396529;-80
2021/03/10 02:18:41;;;;;;;7.90;5.80;;;;;;;3.39;100.00;99217.16;3818842;76;391061;-81
2021/03/10 02:24:34;;;;;;;5.13;2.77;;;;;;;3.40;100.00;99210.55;3818330;76;396528;-81
2021/03/10 02:29:57;;;;;;;7.67;3.10;;;;;;;3.47;100.00;99206.10;3820167;74;394213;-80
2021/03/10 02:35:19;;;;;;;6.63;1.67;;;;;;;3.52;100.00;99206.41;3820139;74;391956;-81
2021/03/10 02:40:41;;;;;;;17.90;3.77;;;;;;;3.42;100.00;99211.81;3817187;76;396119;-80
2021/03/10 02:46:05;;;;;;;9.43;7.47;;;;;;;3.49;100.00;99208.47;3817681;76;396067;-81
2021/03/10 02:51:27;;;;;;;6.60;3.57;;;;;;;3.55;100.00;99208.45;3817849;76;388804;-80
2021/03/10 02:56:49;;;;;;;9.30;4.77;;;;;;;3.45;100.00;99217.11;3817752;77;394023;-80
2021/03/10 03:02:10;;;;;;;7.00;3.50;;;;;;;3.43;100.00;99218.80;3817286;76;396086;-81
2021/03/10 03:07:32;;;;;;;15.23;3.47;;;;;;;3.41;100.00;99224.37;3817613;76;393989;-81
2021/03/10 03:12:54;;;;;;;7.17;3.07;;;;;;;3.42;100.00;99221.88;3817414;76;393982;-80
2021/03/10 03:18:16;;;;;;;9.13;5.10;;;;;;;3.31;100.00;99227.62;3817914;76;398187;-80
2021/03/10 03:23:41;;;;;;;10.80;3.97;;;;;;;3.31;100.00;99242.58;3817389;76;396181;-80
2021/03/10 03:29:02;;;;;;;18.63;5.20;;;;;;;3.39;100.00;99241.63;3817031;76;396285;-81
2021/03/10 03:34:25;;;;;;;15.73;3.87;;;;;;;3.44;100.00;99244.08;3817738;76;396121;-81
2021/03/10 03:39:47;;;;;;;2.40;2.20;;;;;;;3.41;100.00;99257.81;3817341;76;396340;-81
2021/03/10 03:45:09;;;;;;;6.47;3.60;;;;;;;3.39;100.00;99260.08;3819196;74;396119;-80
2021/03/10 03:50:31;;;;;;;7.57;4.60;;;;;;;3.37;100.00;99262.93;3818173;76;396313;-81
2021/03/10 03:55:54;;;;;;;8.33;5.07;;;;;;;3.38;100.00;99250.92;3818098;76;398150;-80
2021/03/10 04:01:15;;;;;;;12.77;3.60;;;;;;;3.30;100.00;99253.23;3817655;77;394040;-81
2021/03/10 04:06:37;;;;;;;4.50;3.03;;;;;;;3.42;100.00;99259.40;3817724;76;396040;-81
2021/03/10 04:11:58;;;;;;;6.17;3.53;;;;;;;3.24;100.00;99256.77;3817054;76;396272;-81
2021/03/10 04:17:19;;;;;;;3.63;2.80;;;;;;;3.33;100.00;99255.23;3817127;76;396090;-82
2021/03/10 04:22:40;;;;;;;10.60;6.10;;;;;;;3.26;100.00;99248.25;3818308;76;396134;-81
2021/03/10 04:28:02;;;;;;;9.57;5.20;;;;;;;3.42;100.00;99239.00;3817987;76;396032;-81
2021/03/10 04:33:23;;;;;;;19.70;5.33;;;;;;;3.33;100.00;99234.29;3816648;76;390865;-80
2021/03/10 04:38:44;;;;;;;2.70;2.50;;;;;;;3.21;100.00;99239.00;3812546;76;396083;-81
2021/03/10 04:44:08;;;;;;;10.70;5.67;;;;;;;3.44;100.00;99238.06;3812737;76;396397;-81
2021/03/10 04:49:29;;;;;;;13.97;5.57;;;;;;;3.37;100.00;99243.90;3812416;76;400235;-80
2021/03/10 04:54:50;;;;;;;7.40;4.07;;;;;;;3.56;100.00;99246.72;3812682;76;390881;-81
2021/03/10 05:00:12;;;;;;;4.63;3.33;;;;;;;3.49;100.00;99249.25;3814256;74;396304;-80
2021/03/10 05:05:33;;;;;;;6.03;3.83;;;;;;;3.48;100.00;99249.03;3793342;76;396099;-80
2021/03/10 05:10:54;;;;;;;9.00;4.40;;;;;;;3.52;100.00;99252.65;3814942;74;396079;-80
2021/03/10 05:16:16;;;;;;;10.60;2.87;;;;;;;3.56;100.00;99257.05;3813279;76;400286;-80
2021/03/10 05:21:38;;;;;;;5.57;4.47;;;;;;;3.51;100.00;99257.86;3784498;76;396392;-81
2021/03/10 05:26:59;;;;;;;4.63;4.23;;;;;;;3.45;100.00;99274.22;3811769;76;396115;-80
2021/03/10 05:32:20;;;;;;;7.27;4.10;;;;;;;3.28;100.00;99270.45;3813624;76;396194;-80
2021/03/10 05:37:41;;;;;;;7.57;5.10;;;;;;;3.20;100.00;99268.67;3812964;76;396451;-80
2021/03/10 05:43:03;;;;;;;7.10;3.93;;;;;;;3.15;100.00;99262.91;3812427;76;396292;-80
2021/03/10 05:48:27;;;;;;;13.27;6.47;;;;;;;3.17;100.00;99263.92;3813116;76;400226;-80
2021/03/10 05:53:50;;;;;;;6.40;3.60;;;;;;;3.17;100.00;99281.03;3812689;76;396318;-81
2021/03/10 05:59:12;;;;;;;10.50;6.00;;;;;;;3.21;100.00;99292.00;3814709;74;396127;-81
2021/03/10 06:04:41;;;;;;;7.80;5.37;;;;;;;3.26;100.00;99289.02;3812919;76;396174;-82
2021/03/10 06:10:05;;;;;;;2.83;1.97;;;;;;;3.25;100.00;99286.08;3812196;76;396336;-81
2021/03/10 06:15:27;;;;;;;6.83;3.57;;;;;;;3.29;100.00;99288.34;3812971;76;394300;-81
2021/03/10 06:20:49;;;;;;;3.90;3.47;;;;;;;3.37;100.00;99295.56;3812595;76;396190;-81
2021/03/10 06:26:13;;;;;;;4.80;4.30;;;;;;;3.42;100.00;99293.94;3812898;75;396247;-81
2021/03/10 06:31:35;;;;;;;14.93;5.43;;;;;;;3.49;100.00;99311.80;3821647;75;393985;-81
2021/03/10 06:36:56;;;;;;;8.80;4.67;;;;;;;3.60;100.00;99319.11;3812687;76;396130;-81
2021/03/10 06:42:19;;;;;;;7.20;4.30;;;;;;;3.68;100.00;99322.82;3813155;76;396099;-82
2021/03/10 06:47:42;;;;;;;9.37;5.50;;;;;;;3.82;100.00;99330.80;3811846;76;396124;-82
2021/03/10 06:53:04;;;;;;;3.83;3.50;;;;;;;3.90;100.00;99333.12;3812245;76;396339;-81
2021/03/10 06:58:27;;;;;;;22.00;6.53;;;;;;;4.09;100.00;99332.65;3812579;76;391908;-81
2021/03/10 07:03:51;;;;;;;13.50;5.50;;;;;;;4.27;100.00;99334.70;3812396;76;396165;-81
2021/03/10 07:09:14;;;;;;;8.03;5.23;;;;;;;4.38;100.00;99337.67;3812777;76;396078;-81
2021/03/10 07:14:36;;;;;;;6.50;6.10;;;;;;;4.53;100.00;99349.91;3814577;74;396124;-81
2021/03/10 07:19:57;;;;;;;5.00;3.60;;;;;;;4.55;100.00;99353.66;3812407;76;396116;-81
2021/03/10 07:25:27;;;;;;;14.47;5.00;;;;;;;4.58;100.00;99359.74;3812871;76;396087;-81
2021/03/10 07:30:50;;;;;;;6.63;5.33;;;;;;;4.61;100.00;99359.83;3812503;76;396028;-81
2021/03/10 07:36:11;;;;;;;15.20;7.60;;;;;;;4.80;100.00;99371.61;3812591;76;393985;-81
2021/03/10 07:41:35;;;;;;;9.50;4.30;;;;;;;5.02;100.00;99375.58;3812896;76;394257;-81
2021/03/10 07:47:08;;;;;;;17.90;6.57;;;;;;;5.11;100.00;99388.45;3800527;77;395243;-81
2021/03/10 07:52:29;;;;;;;12.23;3.23;;;;;;;5.24;100.00;99385.24;3812620;76;400206;-81
2021/03/10 07:57:53;;;;;;;11.67;4.43;;;;;;;5.42;100.00;99392.43;3812273;76;401201;-81
2021/03/10 08:03:14;;;;;;;19.17;6.90;;;;;;;5.58;100.00;99393.38;3812243;76;400538;-81
2021/03/10 08:08:41;;;;;;;6.63;4.57;;;;;;;5.62;100.00;99398.91;3812557;76;391175;-81
2021/03/10 08:14:06;;;;;;;9.57;5.60;;;;;;;5.48;100.00;99404.66;3813715;76;389784;-81
2021/03/10 08:19:26;;;;;;;7.70;3.97;;;;;;;5.37;100.00;99413.19;3812789;76;396107;-80
2021/03/10 08:24:48;;;;;;;8.00;4.93;;;;;;;5.55;100.00;99419.23;3812386;76;396084;-81
2021/03/10 08:30:13;;;;;;;10.27;6.47;;;;;;;5.71;100.00;99419.95;3812596;76;391863;-81
2021/03/10 08:35:34;;;;;;;9.13;5.13;;;;;;;5.56;100.00;99417.53;3813628;76;396123;-81
2021/03/10 08:40:58;;;;;;;12.87;6.57;;;;;;;5.81;100.00;99406.58;3817303;76;400214;-80
2021/03/10 08:46:20;;;;;;;12.70;4.80;;;;;;;6.15;100.00;99408.38;3817456;77;400459;-81
2021/03/10 08:51:41;;;;;;;18.63;7.93;;;;;;;5.99;100.00;99413.15;3818026;76;396028;-81
2021/03/10 08:57:04;;;;;;;9.40;5.50;;;;;;;6.19;100.00;99413.35;3818332;76;396121;-81
2021/03/10 09:02:37;;;;;;;6.33;3.73;;;;;;;6.52;100.00;99411.60;3817882;76;394032;-81
2021/03/10 09:07:59;;;;;;;8.90;6.23;;;;;;;6.52;100.00;99414.92;3818134;77;393993;-81
2021/03/10 09:13:21;;;;;;;7.57;6.80;;;;;;;6.26;100.00;99425.77;3818618;76;396087;-81
2021/03/10 09:18:43;;;;;;;13.47;4.80;;;;;;;6.22;100.00;99427.63;3817828;77;396137;-80
2021/03/10 09:24:04;;;;;;;8.43;3.53;;;;;;;6.45;100.00;99417.54;3818300;76;394953;-80
2021/03/10 09:29:26;;;;;;;14.50;5.20;;;;;;;6.45;100.00;99418.91;3818264;76;396075;-81
2021/03/10 09:34:48;;;;;;;12.40;5.50;;;;;;;6.37;100.00;99418.56;3818189;76;396112;-81
2021/03/10 09:40:10;;;;;;;13.10;6.30;;;;;;;6.66;100.00;99419.26;3812799;76;396196;-81
2021/03/10 09:45:33;;;;;;;7.33;2.50;;;;;;;7.52;100.00;99417.05;3812002;76;394052;-81
2021/03/10 09:50:57;;;;;;;7.57;4.30;;;;;;;7.35;95.93;99416.23;3813571;75;397052;-81
2021/03/10 09:56:23;;;;;;;11.27;5.40;;;;;;;8.13;90.74;99411.95;3808444;75;396120;-81
2021/03/10 10:01:50;;;;;;;8.07;4.63;;;;;;;8.51;89.35;99408.84;3814927;74;397031;-81
2021/03/10 10:07:13;;;;;;;11.13;5.80;;;;;;;8.03;91.46;99409.88;3812750;76;397390;-82
2021/03/10 10:12:37;;;;;;;10.80;4.40;;;;;;;8.16;95.83;99403.80;3812691;76;397347;-81
2021/03/10 10:18:03;;;;;;;5.70;5.17;;;;;;;8.69;93.55;99394.72;3812980;76;397057;-82
2021/03/10 10:23:24;;;;;;;10.53;4.87;;;;;;;8.80;83.39;99399.89;3813380;76;402486;-81
2021/03/10 10:28:45;;;;;;;6.73;4.17;;;;;;;8.65;85.22;99399.36;3813277;76;393985;-81
2021/03/10 10:34:06;;;;;;;4.80;3.23;;;;;;;7.98;91.54;99402.00;3814453;74;397071;-81
2021/03/10 10:39:27;;;;;;;6.60;4.40;;;;;;;8.37;81.97;99395.78;3813087;76;391851;-81
2021/03/10 10:44:50;;;;;;;6.20;4.33;;;;;;;8.57;85.57;99391.67;3813187;76;391152;-82
2021/03/10 10:50:13;;;;;;;8.30;5.77;;;;;;;8.55;85.43;99387.14;3813430;76;389001;-81
2021/03/10 10:55:34;;;;;;;8.70;4.20;;;;;;;9.05;80.29;99383.03;3813544;76;391898;-81
2021/03/10 11:00:55;;;;;;;5.40;4.10;;;;;;;8.70;69.27;99386.69;3812794;76;396138;-80
2021/03/10 11:06:16;;;;;;;6.23;4.33;;;;;;;7.92;68.50;99393.89;3813019;76;396394;-81
2021/03/10 11:11:37;;;;;;;6.90;3.37;;;;;;;7.73;67.80;99386.42;3813315;76;390932;-81
2021/03/10 11:16:58;;;;;;;11.17;5.83;;;;;;;7.64;68.86;99383.98;3812952;76;396090;-80
2021/03/10 11:22:19;;;;;;;16.30;5.33;;;;;;;7.81;68.41;99382.61;3812221;76;400471;-82
2021/03/10 11:27:41;;;;;;;7.17;4.67;;;;;;;7.82;67.34;99375.41;3813732;76;396356;-80
2021/03/10 11:33:02;;;;;;;9.40;5.23;;;;;;;7.68;64.83;99373.84;3812959;76;397043;-80
2021/03/10 11:38:24;;;;;;;6.27;3.97;;;;;;;8.60;64.58;99365.45;3814706;74;390836;-80
2021/03/10 11:43:46;;;;;;;4.30;2.70;;;;;;;9.46;60.16;99366.61;3812341;77;396998;-80
2021/03/10 11:49:07;;;;;;;7.63;3.87;;;;;;;9.49;60.53;99363.11;3812965;76;397090;-79
2021/03/10 11:54:28;;;;;;;8.10;4.20;;;;;;;8.95;55.36;99370.05;3812836;76;396384;-80
2021/03/10 11:59:49;;;;;;;6.63;5.10;;;;;;;8.72;54.92;99359.68;3813360;76;389036;-80
2021/03/10 12:05:11;;;;;;;15.03;3.87;;;;;;;9.08;55.64;99364.44;3812507;76;393989;-80
2021/03/10 12:10:37;;;;;;;8.80;3.60;;;;;;;9.61;53.74;99360.04;3813530;76;397011;-80
2021/03/10 12:15:59;;;;;;;16.30;4.77;;;;;;;10.19;50.75;99364.75;3813561;76;387653;-80
2021/03/10 12:21:20;;;;;;;3.93;3.37;;;;;;;9.42;54.00;99360.91;3812971;76;398375;-81
2021/03/10 12:26:41;;;;;;;12.20;7.20;;;;;;;9.40;55.42;99357.77;3813422;77;391031;-80
2021/03/10 12:32:02;;;;;;;8.57;3.53;;;;;;;10.21;51.89;99352.78;3813908;76;387672;-80
2021/03/10 12:37:24;;;;;;;3.63;2.83;;;;;;;11.48;48.44;99340.69;3813111;76;397045;-80
2021/03/10 12:42:45;;;;;;;6.07;2.73;;;;;;;10.55;47.82;99329.45;3812953;76;397115;-80
2021/03/10 12:48:06;;;;;;;6.13;2.53;;;;;;;9.94;49.34;99336.38;3813275;76;397095;-80
2021/03/10 12:53:28;;;;;;;4.93;3.90;;;;;;;10.60;49.81;99323.55;3813259;76;397309;-81
2021/03/10 12:58:49;;;;;;;3.40;2.03;;;;;;;11.15;46.59;99321.31;3812977;76;397052;-81
2021/03/10 13:04:10;;;;;;;7.40;3.20;;;;;;;11.14;47.40;99309.33;3813396;76;397046;-80
2021/03/10 13:09:32;;;;;;;4.47;2.90;;;;;;;11.15;45.38;99305.37;3812783;76;397066;-81
2021/03/10 13:14:53;;;;;;;6.10;3.90;;;;;;;11.94;46.82;99295.23;3813053;76;391852;-80
2021/03/10 13:20:15;;;;;;;4.07;3.63;;;;;;;11.88;46.14;99296.84;3813032;76;396081;-80
2021/03/10 13:25:37;;;;;;;4.57;3.10;;;;;;;10.76;46.19;99281.88;3812886;76;397054;-80
2021/03/10 13:30:59;;;;;;;3.37;2.83;;;;;;;10.83;48.70;99277.73;3814660;74;397013;-80
2021/03/10 13:36:20;;;;;;;4.13;2.70;;;;;;;11.11;45.27;99275.70;3812547;76;396080;-80
2021/03/10 13:41:41;;;;;;;4.40;2.10;;;;;;;11.04;46.71;99271.59;3812989;76;396012;-80
2021/03/10 13:47:03;;;;;;;4.00;3.13;;;;;;;11.26;45.88;99268.96;3812592;76;396108;-80
2021/03/10 13:52:23;;;;;;;6.70;3.23;;;;;;;10.79;46.63;99265.94;3811806;76;393946;-80
2021/03/10 13:57:45;;;;;;;3.50;3.20;;;;;;;10.27;48.65;99270.91;3812941;76;396073;-80
2021/03/10 14:03:07;;;;;;;4.53;3.03;;;;;;;10.03;49.81;99264.80;3812619;76;398028;-80
2021/03/10 14:08:28;;;;;;;4.73;3.77;;;;;;;10.79;47.98;99260.43;3812562;71;397021;-76
2021/03/10 14:13:50;;;;;;;18.63;2.70;;;;;;;10.59;49.84;99260.07;3812363;76;396059;-76
2021/03/10 14:19:11;;;;;;;5.43;3.43;;;;;;;11.31;49.01;99249.25;3811340;76;397062;-76
2021/03/10 14:24:32;;;;;;;7.10;2.70;;;;;;;10.79;48.69;99246.09;3812275;76;396154;-76
2021/03/10 14:29:53;;;;;;;4.33;3.23;;;;;;;10.72;48.52;99240.61;3812409;76;396123;-76
2021/03/10 14:35:18;;;;;;;2.40;2.00;;;;;;;10.63;50.02;99249.86;3812134;76;396326;-75
2021/03/10 14:40:39;;;;;;;2.17;1.33;;;;;;;10.36;50.72;99239.67;3795874;75;395214;-74
2021/03/10 14:46:00;;;;;;;2.67;1.73;;;;;;;10.85;50.21;99241.75;3776279;76;397097;-74
2021/03/10 14:51:22;;;;;;;1.90;1.80;;;;;;;10.38;52.00;99235.92;3776518;76;392975;-75
2021/03/10 14:56:43;;;;;;;10.53;5.10;;;;;;;10.39;51.20;99228.67;3797307;75;397314;-74
2021/03/10 15:02:05;;;;;;;3.93;1.80;;;;;;;9.82;53.59;99225.48;3814119;76;397009;-74
2021/03/10 15:07:26;;;;;;;2.60;2.40;;;;;;;9.96;52.95;99221.36;3795057;76;397007;-74
2021/03/10 15:12:48;;;;;;;3.37;3.07;;;;;;;9.91;52.46;99212.92;3798338;76;396292;-74
2021/03/10 15:18:09;;;;;;;2.70;2.47;;;;;;;9.90;52.14;99211.95;3814616;75;396155;-75
2021/03/10 15:23:31;;;;;;;2.57;2.37;;;;;;;10.15;51.95;99205.30;3805084;76;395318;-75
2021/03/10 15:28:52;;;;;;;4.47;3.37;;;;;;;9.67;53.86;99202.69;3792370;76;397007;-74
2021/03/10 15:34:13;;;;;;;3.33;2.63;;;;;;;9.73;53.44;99200.34;3806115;76;397025;-74
2021/03/10 15:39:34;;;;;;;5.67;2.50;;;;;;;9.61;53.24;99197.98;3812842;75;397009;-74
2021/03/10 15:44:56;;;;;;;3.00;2.70;;;;;;;9.56;54.43;99187.38;3814203;75;397009;-75
2021/03/10 15:50:20;;;;;;;4.53;3.60;;;;;;;9.60;55.78;99175.22;3812597;76;396426;-74
2021/03/10 15:55:42;;;;;;;4.83;3.17;;;;;;;9.72;56.22;99179.55;3812645;76;397047;-74
2021/03/10 16:01:03;;;;;;;4.50;2.93;;;;;;;9.40;56.28;99177.34;3812417;77;394226;-74
2021/03/10 16:06:25;;;;;;;3.60;2.30;;;;;;;9.18;56.56;99181.77;3812747;76;397013;-74
2021/03/10 16:11:46;;;;;;;8.90;2.07;;;;;;;9.02;56.93;99165.67;3813108;76;396095;-74
2021/03/10 16:17:07;;;;;;;8.47;4.10;;;;;;;8.92;57.35;99167.78;3812979;76;394925;-74
2021/03/10 16:22:28;;;;;;;4.20;2.10;;;;;;;8.95;57.38;99158.79;3812733;76;393961;-74
2021/03/10 16:27:51;;;;;;;2.27;2.07;;;;;;;8.97;57.52;99150.16;3812531;76;396040;-74
2021/03/10 16:33:12;;;;;;;4.50;1.83;;;;;;;8.99;57.56;99138.99;3814151;74;394974;-74
2021/03/10 16:38:38;;;;;;;7.40;3.83;;;;;;;8.97;57.80;99130.35;3812766;76;397108;-74
2021/03/10 16:43:59;;;;;;;3.77;2.87;;;;;;;8.82;59.90;99144.42;3817124;76;397038;-75
2021/03/10 16:49:20;;;;;;;2.90;2.70;;;;;;;8.74;61.07;99144.20;3803403;76;393210;-74
2021/03/10 16:54:41;;;;;;;3.60;2.37;;;;;;;8.66;61.90;99148.65;3818902;74;397038;-74
2021/03/10 17:00:04;;;;;;;2.33;2.17;;;;;;;8.60;62.62;99149.63;3817208;76;397387;-75
2021/03/10 17:05:25;;;;;;;5.93;1.80;;;;;;;8.54;60.58;99144.88;3817194;76;396068;-74
2021/03/10 17:10:46;;;;;;;1.83;1.37;;;;;;;8.43;61.14;99138.55;3817607;76;394970;-75
2021/03/10 17:16:08;;;;;;;5.23;2.80;;;;;;;8.26;62.14;99129.64;3817562;76;397259;-74
2021/03/10 17:21:30;;;;;;;2.27;1.63;;;;;;;8.15;63.08;99138.39;3817482;76;394952;-74
2021/03/10 17:26:51;;;;;;;4.37;2.50;;;;;;;7.93;63.57;99133.88;3817272;76;397281;-75
2021/03/10 17:32:13;;;;;;;2.23;2.03;;;;;;;7.72;64.87;99135.10;3817496;76;395053;-75
2021/03/10 17:37:34;;;;;;;3.13;2.20;;;;;;;7.63;65.57;99129.16;3817338;77;397001;-74
2021/03/10 17:42:55;;;;;;;7.93;3.83;;;;;;;7.57;67.88;99132.05;3809196;76;397059;-74
2021/03/10 17:48:16;;;;;;;7.80;3.33;;;;;;;7.38;69.89;99129.52;3825921;75;397012;-75
2021/03/10 17:53:38;;;;;;;7.20;4.77;;;;;;;7.32;70.66;99124.19;3827000;75;397035;-75
2021/03/10 17:58:59;;;;;;;4.37;2.30;;;;;;;7.25;71.42;99117.28;3825547;75;396082;-75
2021/03/10 18:04:20;;;;;;;3.43;3.20;;;;;;;7.18;72.03;99122.69;3826626;75;397322;-74
2021/03/10 18:09:41;;;;;;;4.50;3.00;;;;;;;7.10;73.52;99124.94;3825403;75;396384;-75
2021/03/10 18:15:03;;;;;;;2.93;2.70;;;;;;;7.03;74.02;99120.77;3823639;75;397040;-75
2021/03/10 18:20:25;;;;;;;9.50;3.23;;;;;;;7.06;73.22;99113.16;3827070;75;396036;-75
2021/03/10 18:25:46;;;;;;;2.47;2.27;;;;;;;7.02;73.35;99115.86;3825755;75;397002;-75
2021/03/10 18:31:07;;;;;;;3.40;3.10;;;;;;;6.94;73.90;99106.61;3826159;75;397049;-75
2021/03/10 18:36:29;;;;;;;4.97;2.83;;;;;;;6.89;73.11;99103.63;3825596;75;396392;-74
2021/03/10 18:41:50;;;;;;;3.30;2.23;;;;;;;6.86;71.81;99104.95;3823793;75;396135;-74
2021/03/10 18:47:12;;;;;;;2.47;2.37;;;;;;;6.99;71.32;99100.20;3817273;76;396292;-75
2021/03/10 18:52:33;;;;;;;6.67;2.63;;;;;;;7.22;69.43;99107.68;3817273;76;397029;-75
2021/03/10 18:57:54;;;;;;;1.90;1.73;;;;;;;7.14;70.74;99099.97;3817485;76;396162;-74
2021/03/10 19:03:15;;;;;;;2.03;1.80;;;;;;;7.10;71.39;99094.86;3817399;77;393876;-74
2021/03/10 19:08:36;;;;;;;5.37;2.73;;;;;;;7.10;71.50;99100.33;3817316;76;396069;-75
2021/03/10 19:13:58;;;;;;;2.83;1.70;;;;;;;7.03;71.61;99095.56;3817376;76;396330;-74
2021/03/10 19:19:19;;;;;;;4.83;1.87;;;;;;;7.13;71.25;99094.30;3817186;76;396114;-74
2021/03/10 19:24:40;;;;;;;5.97;3.50;;;;;;;6.97;71.61;99090.80;3817316;77;397271;-74
2021/03/10 19:30:01;;;;;;;7.27;3.53;;;;;;;6.82;72.91;99088.52;3817537;76;396069;-74
2021/03/10 19:35:23;;;;;;;19.03;2.93;;;;;;;6.86;73.09;99078.98;3798756;76;400198;-74
2021/03/10 19:40:44;;;;;;;10.10;2.90;;;;;;;6.83;73.52;99075.02;3817490;76;400246;-74
2021/03/10 19:46:06;;;;;;;2.80;1.83;;;;;;;6.71;74.58;99063.00;3817352;76;394303;-74
2021/03/10 19:51:26;;;;;;;5.67;3.00;;;;;;;6.77;74.58;99056.62;3817165;76;396144;-74
2021/03/10 19:56:49;;;;;;;6.93;4.73;;;;;;;6.71;74.33;99045.80;3819726;74;389853;-74
2021/03/10 20:02:10;;;;;;;17.37;9.10;;;;;;;6.79;72.77;99046.07;3816797;76;400203;-74
2021/03/10 20:07:31;;;;;;;4.70;2.90;;;;;;;6.60;72.82;99026.55;3817283;77;396300;-74
2021/03/10 20:12:53;;;;;;;9.93;3.33;;;;;;;6.48;73.65;99026.83;3817503;77;396312;-74
2021/03/10 20:18:14;;;;;;;5.20;2.87;;;;;;;6.33;75.92;99016.09;3816489;76;396036;-74
2021/03/10 20:23:36;;;;;;;9.40;4.20;;;;;;;6.22;76.80;99006.20;3817467;77;397025;-74
2021/03/10 20:28:57;;;;;;;3.23;2.30;;;;;;;6.18;77.17;98997.20;3817221;76;397303;-74
2021/03/10 20:34:18;;;;;;;6.63;2.80;;;;;;;6.15;76.58;98989.73;3817935;76;396115;-74
2021/03/10 20:39:40;;;;;;;5.50;3.73;;;;;;;6.24;74.74;98973.85;3817150;76;397012;-74
2021/03/10 20:45:01;;;;;;;6.23;2.70;;;;;;;6.37;72.97;98969.12;3826211;75;396096;-74
2021/03/10 20:50:25;;;;;;;3.27;1.83;;;;;;;6.36;72.53;98960.72;3780453;76;396313;-74
2021/03/10 20:55:47;;;;;;;3.13;2.83;;;;;;;6.43;72.98;98955.33;3776814;76;396307;-74
2021/03/10 21:01:08;;;;;;;11.60;3.83;;;;;;;6.37;72.42;98948.64;3778306;76;394260;-74
2021/03/10 21:06:29;;;;;;;2.27;2.07;;;;;;;6.25;73.22;98948.11;3807054;76;396052;-74
2021/03/10 21:11:50;;;;;;;9.27;2.87;;;;;;;6.30;72.43;98944.44;3804367;76;396288;-74
2021/03/10 21:17:13;;;;;;;3.10;2.87;;;;;;;6.25;72.66;98924.30;3777423;78;396352;-74
2021/03/10 21:22:36;;;;;;;6.17;3.37;;;;;;;6.24;72.88;98913.16;3803650;76;396300;-74
2021/03/10 21:27:57;;;;;;;2.40;1.87;;;;;;;6.12;73.58;98912.64;3803729;76;391958;-75
2021/03/10 21:33:19;;;;;;;6.37;3.80;;;;;;;5.98;75.12;98900.98;3804391;75;396105;-74
2021/03/10 21:38:40;;;;;;;12.03;5.10;;;;;;;5.89;76.57;98895.62;3804771;76;396116;-74
2021/03/10 21:44:03;;;;;;;36.70;6.43;;;;;;;5.95;75.93;98878.54;3811403;75;396083;-74
2021/03/10 21:49:24;;;;;;;7.37;4.40;;;;;;;5.94;75.46;98883.80;3823495;75;396127;-74
2021/03/10 21:54:46;;;;;;;5.77;3.63;;;;;;;6.00;74.94;98878.19;3816420;76;396032;-74
2021/03/10 22:00:09;;;;;;;4.40;3.00;;;;;;;5.94;75.42;98859.22;3813374;76;396133;-74
2021/03/10 22:05:31;;;;;;;3.80;2.57;;;;;;;5.89;76.54;98850.02;3813562;75;396051;-74
2021/03/10 22:10:52;;;;;;;4.30;2.80;;;;;;;5.79;77.22;98843.85;3813487;76;396312;-74
2021/03/10 22:16:13;;;;;;;1.47;1.37;;;;;;;5.81;77.14;98831.99;3813882;76;392889;-74
2021/03/10 22:21:34;;;;;;;10.13;3.40;;;;;;;5.80;77.71;98830.42;3814559;76;398135;-75
2021/03/10 22:26:55;;;;;;;5.97;4.07;;;;;;;5.67;77.41;98819.50;3814532;76;396288;-74
2021/03/10 22:32:16;;;;;;;1.93;1.77;;;;;;;5.73;77.28;98813.94;3813621;77;392939;-74
2021/03/10 22:37:37;;;;;;;3.33;2.03;;;;;;;5.79;77.08;98801.55;3813494;77;396118;-74
2021/03/10 22:42:59;;;;;;;2.50;2.27;;;;;;;5.76;77.13;98808.30;3813226;75;396115;-74
2021/03/10 22:48:20;;;;;;;1.73;1.23;;;;;;;5.81;77.03;98796.51;3813813;76;392162;-74
2021/03/10 22:53:41;;;;;;;1.80;1.60;;;;;;;5.71;77.46;98775.31;3813425;75;396136;-74
2021/03/10 22:59:01;;;;;;;2.63;2.30;;;;;;;5.67;76.49;98746.42;3814352;75;395044;-74
2021/03/10 23:04:23;;;;;;;7.47;3.67;;;;;;;5.67;78.04;98720.50;3813484;76;396077;-74
2021/03/10 23:09:44;;;;;;;3.00;2.13;;;;;;;5.60;78.50;98736.80;3814572;76;396119;-74
2021/03/10 23:15:07;;;;;;;2.87;2.50;;;;;;;5.73;76.58;98745.71;3813281;76;396119;-74
2021/03/10 23:20:28;;;;;;;2.20;1.47;;;;;;;5.62;76.96;98714.80;3813588;76;391975;-74
2021/03/10 23:25:50;;;;;;;7.00;2.83;;;;;;;5.74;76.14;98713.14;3813285;76;396123;-75
2021/03/10 23:31:11;;;;;;;3.93;2.17;;;;;;;5.87;73.90;98708.22;3813336;76;394012;-74
2021/03/10 23:36:34;;;;;;;8.30;2.47;;;;;;;5.84;74.08;98701.57;3813486;76;396075;-75
2021/03/10 23:41:56;;;;;;;2.03;1.70;;;;;;;5.82;73.56;98701.75;3814566;76;394991;-75
2021/03/10 23:47:16;;;;;;;3.43;3.03;;;;;;;5.88;73.42;98687.39;3814384;76;396204;-75
2021/03/10 23:52:38;;;;;;;4.67;3.10;;;;;;;5.86;73.18;98678.78;3814359;76;396281;-74
2021/03/10 23:57:59;;;;;;;3.73;2.47;;;;;;;5.80;73.59;98665.86;3813251;75;396098;-75
